createdAt,value
2023-05-18T00:00:00.160Z,4.13
2023-05-18T00:02:30.470Z,4.40
2023-05-18T00:05:02.154Z,4.13
2023-05-18T00:07:34.252Z,5.18
2023-05-18T00:10:06.170Z,4.15
2023-05-18T00:12:34.484Z,4.60
2023-05-18T00:15:02.762Z,3.72
2023-05-18T00:17:33.788Z,4.30
2023-05-18T00:20:02.041Z,3.88
2023-05-18T00:22:30.404Z,4.07
2023-05-18T00:24:58.617Z,4.05
2023-05-18T00:27:26.945Z,3.90
2023-05-18T00:29:55.202Z,4.15
2023-05-18T00:32:23.470Z,3.88
2023-05-18T00:34:54.681Z,3.83
2023-05-18T00:37:24.304Z,4.30
2023-05-18T00:39:52.652Z,4.38
2023-05-18T00:42:21.177Z,3.97
2023-05-18T00:44:49.405Z,4.95
2023-05-18T00:47:18.494Z,3.78
2023-05-18T00:49:46.845Z,4.05
2023-05-18T00:52:17.013Z,3.92
2023-05-18T00:54:45.457Z,4.28
2023-05-18T00:57:15.978Z,4.63
2023-05-18T00:59:46.062Z,3.45
2023-05-18T01:02:15.009Z,4.78
2023-05-18T01:04:43.497Z,3.83
2023-05-18T01:07:12.904Z,4.10
2023-05-18T01:09:42.531Z,4.00
2023-05-18T01:12:19.508Z,4.78
2023-05-18T01:14:53.944Z,3.85
2023-05-18T01:17:33.610Z,3.95
2023-05-18T01:20:16.502Z,4.53
2023-05-18T01:23:10.220Z,4.68
2023-05-18T01:25:49.567Z,3.78
2023-05-18T01:28:22.056Z,3.90
2023-05-18T01:30:51.005Z,3.55
2023-05-18T01:33:19.462Z,3.90
2023-05-18T01:35:49.007Z,4.70
2023-05-18T01:38:18.762Z,3.70
2023-05-18T01:40:54.592Z,3.88
2023-05-18T01:43:29.959Z,4.07
2023-05-18T01:46:02.663Z,4.82
2023-05-18T01:48:32.038Z,4.40
2023-05-18T01:51:01.457Z,4.78
2023-05-18T01:53:39.173Z,5.05
2023-05-18T01:56:11.739Z,4.28
2023-05-18T01:58:42.311Z,4.35
2023-05-18T02:01:10.999Z,4.18
2023-05-18T02:03:39.539Z,4.05
2023-05-18T02:06:08.157Z,4.35
2023-05-18T02:08:36.790Z,4.78
2023-05-18T02:11:05.242Z,4.30
2023-05-18T02:13:33.537Z,4.70
2023-05-18T02:16:04.597Z,4.35
2023-05-18T02:18:34.131Z,4.93
2023-05-18T02:21:04.095Z,5.03
2023-05-18T02:23:33.906Z,4.72
2023-05-18T02:26:02.683Z,4.05
2023-05-18T02:28:31.203Z,5.53
2023-05-18T02:31:08.117Z,5.32
2023-05-18T02:33:40.031Z,5.43
2023-05-18T02:36:13.518Z,4.40
2023-05-18T02:38:44.601Z,5.15
2023-05-18T02:41:13.302Z,4.85
2023-05-18T02:43:41.747Z,6.35
2023-05-18T02:46:11.534Z,5.35
2023-05-18T02:48:39.769Z,5.43
2023-05-18T02:51:08.074Z,5.20
2023-05-18T02:53:36.706Z,4.28
2023-05-18T02:56:12.285Z,4.45
2023-05-18T02:58:48.241Z,5.03
2023-05-18T03:01:26.925Z,4.57
2023-05-18T03:03:57.758Z,4.25
2023-05-18T03:06:27.450Z,3.70
2023-05-18T03:08:57.036Z,4.43
2023-05-18T03:11:33.176Z,4.30
2023-05-18T03:14:01.480Z,4.32
2023-05-18T03:16:31.254Z,4.55
2023-05-18T03:19:01.911Z,4.65
2023-05-18T03:21:36.428Z,3.72
2023-05-18T03:24:05.263Z,3.97
2023-05-18T03:26:39.735Z,2.90
2023-05-18T03:29:08.017Z,4.22
2023-05-18T03:31:40.965Z,3.78
2023-05-18T03:34:10.810Z,3.83
2023-05-18T03:36:39.462Z,4.75
2023-05-18T03:39:08.486Z,3.00
2023-05-18T03:41:37.295Z,3.53
2023-05-18T03:44:05.637Z,3.55
2023-05-18T03:46:34.124Z,2.88
2023-05-18T03:49:05.011Z,3.38
2023-05-18T03:51:39.206Z,3.55
2023-05-18T03:54:07.490Z,3.88
2023-05-18T03:56:37.547Z,2.92
2023-05-18T03:59:06.536Z,2.63
2023-05-18T04:01:34.882Z,3.25
2023-05-18T04:04:04.738Z,3.22
2023-05-18T04:06:35.328Z,3.53
2023-05-18T04:09:04.701Z,3.17
2023-05-18T04:11:33.134Z,3.10
2023-05-18T04:14:01.927Z,3.08
2023-05-18T04:16:31.506Z,3.00
2023-05-18T04:19:00.468Z,2.42
2023-05-18T04:21:35.439Z,2.42
2023-05-18T04:24:05.149Z,1.95
2023-05-18T04:26:36.392Z,1.80
2023-05-18T04:29:04.768Z,1.80
2023-05-18T04:31:33.753Z,1.80
2023-05-18T04:34:02.158Z,2.00
2023-05-18T04:36:32.021Z,1.88
2023-05-18T04:39:00.907Z,1.70
2023-05-18T04:41:30.527Z,2.03
2023-05-18T04:44:00.925Z,1.50
2023-05-18T04:46:29.619Z,1.77
2023-05-18T04:48:58.977Z,1.60
2023-05-18T04:51:27.275Z,2.38
2023-05-18T04:53:57.022Z,2.10
2023-05-18T04:56:25.415Z,1.85
2023-05-18T04:58:53.695Z,1.60
2023-05-18T05:01:22.563Z,1.88
2023-05-18T05:03:51.012Z,1.77
2023-05-18T05:06:19.789Z,1.75
2023-05-18T05:08:48.238Z,1.90
2023-05-18T05:11:17.861Z,1.63
2023-05-18T05:13:46.329Z,1.77
2023-05-18T05:16:14.926Z,2.00
2023-05-18T05:18:44.208Z,1.67
2023-05-18T05:21:14.260Z,2.00
2023-05-18T05:23:42.630Z,1.60
2023-05-18T05:26:11.520Z,1.48
2023-05-18T05:28:41.284Z,4.18
2023-05-18T05:31:12.213Z,2.00
2023-05-18T05:33:40.879Z,1.55
2023-05-18T05:36:13.208Z,2.63
2023-05-18T05:38:42.204Z,1.45
2023-05-18T05:41:13.567Z,1.85
2023-05-18T05:43:43.543Z,7.05
2023-05-18T05:46:12.029Z,4.07
2023-05-18T05:48:41.030Z,4.30
2023-05-18T05:51:10.114Z,1.88
2023-05-18T05:53:38.511Z,1.55
2023-05-18T05:56:08.427Z,1.73
2023-05-18T05:58:39.672Z,1.30
2023-05-18T06:01:09.533Z,1.35
2023-05-18T06:03:38.829Z,1.88
2023-05-18T06:06:11.232Z,1.77
2023-05-18T06:08:39.746Z,1.65
2023-05-18T06:11:11.399Z,2.38
2023-05-18T06:13:43.940Z,1.58
2023-05-18T06:16:14.667Z,1.23
2023-05-18T06:18:43.354Z,0.70
2023-05-18T06:21:11.763Z,0.90
2023-05-18T06:23:41.984Z,0.90
2023-05-18T06:26:24.727Z,0.65
2023-05-18T06:29:17.961Z,1.17
2023-05-18T06:32:14.616Z,1.30
2023-05-18T06:34:46.053Z,0.80
2023-05-18T06:37:14.493Z,2.13
2023-05-18T06:39:44.422Z,1.45
2023-05-18T06:42:12.931Z,1.50
2023-05-18T06:44:53.760Z,1.35
2023-05-18T06:47:32.942Z,1.38
2023-05-18T06:50:01.546Z,1.40
2023-05-18T06:52:32.615Z,1.33
2023-05-18T06:55:01.289Z,2.08
2023-05-18T06:57:30.119Z,1.73
2023-05-18T07:00:02.089Z,1.77
2023-05-18T07:02:33.484Z,1.40
2023-05-18T07:05:05.492Z,2.00
2023-05-18T07:07:33.776Z,2.10
2023-05-18T07:10:02.028Z,14.93
2023-05-18T07:12:30.498Z,5.63
2023-05-18T07:15:01.700Z,6.05
2023-05-18T07:17:30.165Z,2.33
2023-05-18T07:19:59.765Z,1.75
2023-05-18T07:22:28.054Z,1.40
2023-05-18T07:24:56.669Z,1.95
2023-05-18T07:27:24.949Z,1.42
2023-05-18T07:29:53.851Z,1.52
2023-05-18T07:32:22.084Z,1.13
2023-05-18T07:34:53.491Z,1.52
2023-05-18T07:37:23.146Z,1.67
2023-05-18T07:39:51.670Z,1.05
2023-05-18T07:42:19.884Z,1.40
2023-05-18T07:44:48.240Z,0.93
2023-05-18T07:47:18.586Z,0.95
2023-05-18T07:49:46.795Z,0.95
2023-05-18T07:52:15.149Z,0.82
2023-05-18T07:54:44.965Z,0.93
2023-05-18T07:57:13.246Z,1.13
2023-05-18T07:59:41.636Z,0.93
2023-05-18T08:02:12.680Z,1.27
2023-05-18T08:04:41.182Z,1.00
2023-05-18T08:07:10.688Z,1.00
2023-05-18T08:09:39.563Z,1.00
2023-05-18T08:12:09.906Z,1.08
2023-05-18T08:14:38.199Z,0.98
2023-05-18T08:17:07.579Z,1.35
2023-05-18T08:19:37.223Z,1.23
2023-05-18T08:22:06.147Z,0.95
2023-05-18T08:24:34.360Z,1.13
2023-05-18T08:27:03.512Z,1.02
2023-05-18T08:29:34.403Z,0.95
2023-05-18T08:32:02.796Z,0.90
2023-05-18T08:34:31.070Z,1.13
2023-05-18T08:37:00.151Z,0.90
2023-05-18T08:39:31.658Z,1.00
2023-05-18T08:42:04.145Z,0.93
2023-05-18T08:44:41.192Z,1.00
2023-05-18T08:47:11.557Z,1.40
2023-05-18T08:49:43.932Z,2.00
2023-05-18T08:52:19.656Z,1.55
2023-05-18T08:54:48.087Z,1.25
2023-05-18T08:57:18.763Z,1.25
2023-05-18T08:59:49.855Z,1.50
2023-05-18T09:02:18.428Z,0.88
2023-05-18T09:04:48.757Z,1.13
2023-05-18T09:07:18.367Z,1.15
2023-05-18T09:09:50.951Z,1.10
2023-05-18T09:12:24.221Z,1.10
2023-05-18T09:14:55.082Z,0.82
2023-05-18T09:17:24.060Z,1.00
2023-05-18T09:19:52.351Z,1.45
2023-05-18T09:22:20.936Z,1.13
2023-05-18T09:24:50.106Z,0.70
2023-05-18T09:27:20.019Z,1.48
2023-05-18T09:29:58.045Z,0.88
2023-05-18T09:32:39.702Z,0.95
2023-05-18T09:35:29.052Z,1.70
2023-05-18T09:38:00.521Z,1.17
2023-05-18T09:40:32.861Z,1.00
2023-05-18T09:43:08.278Z,1.15
2023-05-18T09:45:43.711Z,0.85
2023-05-18T09:48:12.629Z,0.90
2023-05-18T09:50:41.041Z,1.17
2023-05-18T09:53:20.822Z,0.90
2023-05-18T09:55:50.297Z,1.58
2023-05-18T09:58:19.759Z,1.08
2023-05-18T10:00:51.732Z,1.67
2023-05-18T10:03:21.703Z,1.95
2023-05-18T10:05:50.651Z,1.70
2023-05-18T10:08:19.255Z,1.20
2023-05-18T10:10:50.178Z,1.08
2023-05-18T10:13:37.256Z,1.58
2023-05-18T10:16:09.339Z,1.45
2023-05-18T10:18:38.663Z,4.65
2023-05-18T10:21:08.179Z,1.50
2023-05-18T10:23:38.190Z,1.63
2023-05-18T10:26:07.933Z,1.30
2023-05-18T10:28:42.466Z,1.45
2023-05-18T10:31:12.634Z,1.38
2023-05-18T10:33:41.349Z,2.10
2023-05-18T10:36:11.550Z,1.33
2023-05-18T10:38:40.738Z,1.60
2023-05-18T10:41:10.934Z,2.13
2023-05-18T10:43:43.073Z,1.65
2023-05-18T10:46:16.004Z,1.40
2023-05-18T10:48:50.144Z,1.50
2023-05-18T10:51:21.472Z,1.30
2023-05-18T10:53:50.141Z,1.30
2023-05-18T10:56:19.666Z,1.80
2023-05-18T10:58:48.764Z,1.40
2023-05-18T11:01:19.765Z,1.63
2023-05-18T11:03:50.976Z,1.30
2023-05-18T11:06:25.163Z,1.75
2023-05-18T11:08:53.784Z,1.77
2023-05-18T11:11:26.222Z,1.70
2023-05-18T11:13:54.820Z,1.30
2023-05-18T11:16:36.401Z,1.45
2023-05-18T11:19:07.890Z,1.30
2023-05-18T11:21:54.285Z,1.23
2023-05-18T11:24:30.121Z,1.30
2023-05-18T11:27:00.462Z,1.27
2023-05-18T11:29:33.386Z,1.42
2023-05-18T11:32:05.075Z,1.10
2023-05-18T11:34:39.598Z,1.25
2023-05-18T11:37:10.918Z,1.63
2023-05-18T11:39:55.381Z,1.15
2023-05-18T11:42:33.957Z,1.27
2023-05-18T11:45:08.149Z,1.20
2023-05-18T11:47:39.949Z,1.52
2023-05-18T11:50:10.408Z,0.70
2023-05-18T11:52:49.481Z,1.10
2023-05-18T11:55:20.572Z,1.08
2023-05-18T11:57:53.404Z,1.30
2023-05-18T12:00:22.433Z,2.20
2023-05-18T12:02:52.998Z,1.00
2023-05-18T12:05:22.170Z,1.05
2023-05-18T12:07:54.774Z,1.40
2023-05-18T12:10:23.419Z,1.33
2023-05-18T12:12:53.912Z,1.17
2023-05-18T12:15:24.170Z,1.10
2023-05-18T12:17:53.876Z,0.77
2023-05-18T12:20:26.637Z,0.90
2023-05-18T12:22:56.282Z,0.88
2023-05-18T12:25:28.481Z,1.35
2023-05-18T12:28:00.599Z,0.73
2023-05-18T12:30:35.032Z,0.80
2023-05-18T12:33:19.172Z,1.00
2023-05-18T12:35:55.746Z,1.15
2023-05-18T12:38:50.957Z,1.02
2023-05-18T12:41:33.653Z,1.38
2023-05-18T12:44:20.748Z,1.00
2023-05-18T12:46:53.979Z,1.38
2023-05-18T12:49:23.733Z,1.00
2023-05-18T12:51:56.676Z,1.50
2023-05-18T12:54:29.730Z,0.80
2023-05-18T12:57:02.193Z,1.13
2023-05-18T12:59:32.817Z,1.42
2023-05-18T13:02:01.503Z,1.38
2023-05-18T13:04:37.669Z,1.40
2023-05-18T13:07:06.173Z,1.40
2023-05-18T13:09:34.390Z,1.65
2023-05-18T13:12:07.975Z,1.40
2023-05-18T13:14:39.431Z,1.38
2023-05-18T13:17:07.752Z,1.48
2023-05-18T13:19:37.703Z,1.75
2023-05-18T13:22:06.176Z,1.38
2023-05-18T13:24:34.355Z,1.40
2023-05-18T13:27:02.579Z,1.23
2023-05-18T13:29:30.777Z,1.55
2023-05-18T13:31:59.080Z,1.40
2023-05-18T13:34:27.282Z,2.10
2023-05-18T13:36:57.183Z,1.58
2023-05-18T13:39:25.489Z,1.10
2023-05-18T13:41:55.153Z,1.45
2023-05-18T13:44:23.856Z,1.17
2023-05-18T13:46:52.113Z,1.67
2023-05-18T13:49:20.282Z,1.02
2023-05-18T13:51:52.230Z,2.67
2023-05-18T13:54:21.851Z,3.10
2023-05-18T13:56:53.088Z,1.80
2023-05-18T13:59:22.015Z,1.00
2023-05-18T14:01:50.480Z,1.00
2023-05-18T14:04:18.898Z,1.00
2023-05-18T14:06:47.136Z,1.10
2023-05-18T14:09:15.496Z,1.38
2023-05-18T14:11:45.144Z,1.00
2023-05-18T14:14:13.458Z,1.40
2023-05-18T14:16:41.677Z,1.05
2023-05-18T14:19:12.640Z,1.17
2023-05-18T14:21:40.874Z,1.20
2023-05-18T14:24:10.460Z,1.08
2023-05-18T14:26:38.755Z,1.40
2023-05-18T14:29:08.350Z,1.30
2023-05-18T14:31:36.597Z,1.17
2023-05-18T14:34:06.064Z,1.35
2023-05-18T14:36:35.493Z,1.30
2023-05-18T14:39:06.829Z,2.40
2023-05-18T14:41:35.085Z,11.63
2023-05-18T14:44:03.865Z,1.30
2023-05-18T14:46:33.517Z,1.60
2023-05-18T14:49:02.955Z,1.08
2023-05-18T14:51:31.276Z,1.30
2023-05-18T14:53:59.462Z,2.03
2023-05-18T14:56:27.792Z,1.30
2023-05-18T14:58:56.354Z,1.60
2023-05-18T15:01:24.644Z,4.32
2023-05-18T15:03:54.326Z,2.20
2023-05-18T15:06:22.581Z,4.20
2023-05-18T15:08:53.592Z,2.13
2023-05-18T15:11:22.761Z,1.98
2023-05-18T15:13:51.979Z,2.20
2023-05-18T15:16:20.468Z,1.30
2023-05-18T15:18:48.764Z,1.60
2023-05-18T15:21:18.421Z,1.40
2023-05-18T15:23:48.776Z,1.95
2023-05-18T15:26:17.098Z,1.70
2023-05-18T15:28:47.203Z,1.83
2023-05-18T15:31:15.750Z,2.22
2023-05-18T15:33:52.678Z,1.83
2023-05-18T15:36:41.181Z,1.98
2023-05-18T15:39:24.966Z,1.90
2023-05-18T15:42:11.779Z,1.70
2023-05-18T15:44:58.829Z,1.52
2023-05-18T15:47:45.808Z,1.27
2023-05-18T15:50:32.912Z,1.63
2023-05-18T15:53:21.308Z,1.77
2023-05-18T15:55:50.814Z,1.42
2023-05-18T15:58:22.340Z,3.05
2023-05-18T16:00:53.961Z,2.30
2023-05-18T16:03:22.451Z,2.50
2023-05-18T16:05:53.153Z,2.00
2023-05-18T16:08:22.748Z,1.77
2023-05-18T16:10:51.051Z,1.30
2023-05-18T16:13:22.612Z,1.67
2023-05-18T16:15:50.792Z,1.40
2023-05-18T16:18:19.029Z,1.50
2023-05-18T16:20:47.233Z,1.63
2023-05-18T16:23:15.451Z,0.90
2023-05-18T16:25:45.062Z,1.55
2023-05-18T16:28:13.260Z,1.05
2023-05-18T16:30:41.422Z,1.40
2023-05-18T16:33:11.325Z,1.23
2023-05-18T16:35:45.181Z,1.25
2023-05-18T16:38:14.142Z,1.80
2023-05-18T16:40:44.017Z,2.15
2023-05-18T16:43:12.632Z,1.60
2023-05-18T16:45:42.398Z,1.55
2023-05-18T16:48:13.451Z,1.25
2023-05-18T16:50:41.667Z,1.23
2023-05-18T16:53:09.910Z,1.50
2023-05-18T16:55:38.337Z,1.27
2023-05-18T16:58:10.449Z,1.77
2023-05-18T17:00:38.920Z,1.40
2023-05-18T17:03:07.170Z,2.00
2023-05-18T17:05:35.816Z,1.92
2023-05-18T17:08:04.335Z,1.83
2023-05-18T17:10:35.356Z,1.98
2023-05-18T17:13:03.966Z,1.08
2023-05-18T17:15:33.854Z,1.63
2023-05-18T17:18:04.761Z,1.70
2023-05-18T17:20:33.308Z,1.48
2023-05-18T17:23:02.255Z,1.63
2023-05-18T17:25:30.491Z,1.50
2023-05-18T17:27:59.357Z,1.67
2023-05-18T17:30:27.699Z,1.15
2023-05-18T17:32:57.289Z,1.80
2023-05-18T17:35:25.586Z,1.55
2023-05-18T17:37:54.911Z,1.50
2023-05-18T17:40:23.578Z,1.83
2023-05-18T17:42:51.832Z,1.95
2023-05-18T17:45:21.571Z,1.77
2023-05-18T17:47:49.843Z,1.65
2023-05-18T17:50:22.165Z,2.00
2023-05-18T17:52:50.559Z,1.65
2023-05-18T17:55:21.409Z,2.10
2023-05-18T17:57:49.582Z,2.10
2023-05-18T18:00:18.720Z,2.80
2023-05-18T18:02:47.102Z,1.80
2023-05-18T18:05:15.632Z,2.85
2023-05-18T18:07:45.474Z,2.22
2023-05-18T18:10:13.866Z,2.03
2023-05-18T18:12:42.184Z,1.77
2023-05-18T18:15:11.706Z,1.80
2023-05-18T18:17:41.193Z,1.60
2023-05-18T18:20:10.697Z,1.73
2023-05-18T18:22:41.913Z,1.98
2023-05-18T18:25:13.345Z,1.67
2023-05-18T18:27:41.602Z,2.88
2023-05-18T18:30:14.076Z,1.63
2023-05-18T18:32:42.352Z,1.60
2023-05-18T18:35:13.249Z,1.60
2023-05-18T18:37:42.655Z,1.52
2023-05-18T18:40:16.557Z,1.98
2023-05-18T18:42:45.009Z,1.70
2023-05-18T18:45:13.555Z,3.85
2023-05-18T18:47:41.871Z,2.30
2023-05-18T18:50:13.360Z,2.20
2023-05-18T18:52:41.652Z,2.97
2023-05-18T18:55:09.987Z,2.70
2023-05-18T18:57:42.851Z,2.80
2023-05-18T19:00:12.117Z,3.15
2023-05-18T19:02:41.041Z,2.58
2023-05-18T19:05:12.626Z,2.08
2023-05-18T19:07:41.046Z,1.98
2023-05-18T19:10:10.171Z,1.98
2023-05-18T19:12:39.810Z,3.15
2023-05-18T19:15:10.267Z,2.30
2023-05-18T19:17:38.887Z,3.75
2023-05-18T19:20:10.271Z,2.67
2023-05-18T19:22:40.615Z,3.05
2023-05-18T19:25:09.554Z,2.70
2023-05-18T19:27:39.668Z,2.95
2023-05-18T19:30:10.684Z,3.00
2023-05-18T19:32:41.923Z,3.00
2023-05-18T19:35:10.160Z,2.88
2023-05-18T19:37:38.669Z,2.55
2023-05-18T19:40:10.369Z,2.22
2023-05-18T19:42:40.490Z,3.42
2023-05-18T19:45:10.282Z,3.10
2023-05-18T19:47:39.525Z,2.53
2023-05-18T19:50:08.833Z,3.53
2023-05-18T19:52:37.072Z,3.30
2023-05-18T19:55:06.061Z,3.15
2023-05-18T19:57:34.349Z,5.38
2023-05-18T20:00:05.777Z,4.40
2023-05-18T20:02:41.152Z,3.13
2023-05-18T20:05:12.608Z,3.22
2023-05-18T20:07:41.304Z,4.68
2023-05-18T20:10:09.563Z,4.10
2023-05-18T20:12:37.801Z,3.03
2023-05-18T20:15:08.890Z,3.03
2023-05-18T20:17:38.209Z,3.08
2023-05-18T20:20:08.121Z,3.20
2023-05-18T20:22:36.360Z,2.53
2023-05-18T20:25:05.494Z,3.80
2023-05-18T20:27:33.846Z,2.38
2023-05-18T20:30:02.138Z,2.65
2023-05-18T20:32:33.117Z,2.88
2023-05-18T20:35:01.427Z,2.53
2023-05-18T20:37:34.509Z,2.30
2023-05-18T20:40:07.226Z,2.75
2023-05-18T20:42:40.234Z,2.35
2023-05-18T20:45:09.405Z,2.38
2023-05-18T20:47:41.733Z,2.97
2023-05-18T20:50:10.778Z,2.80
2023-05-18T20:52:39.048Z,2.65
2023-05-18T20:55:09.214Z,2.70
2023-05-18T20:57:42.288Z,2.70
2023-05-18T21:00:12.326Z,3.08
2023-05-18T21:02:42.502Z,3.33
2023-05-18T21:05:10.990Z,2.53
2023-05-18T21:07:39.987Z,3.13
2023-05-18T21:10:08.977Z,3.60
2023-05-18T21:12:38.880Z,3.03
2023-05-18T21:15:08.296Z,2.05
2023-05-18T21:17:36.628Z,2.42
2023-05-18T21:20:09.876Z,3.03
2023-05-18T21:22:38.114Z,2.53
2023-05-18T21:25:07.322Z,2.92
2023-05-18T21:27:37.311Z,3.10
2023-05-18T21:30:06.509Z,2.92
2023-05-18T21:32:35.193Z,2.65
2023-05-18T21:35:03.610Z,2.42
2023-05-18T21:37:33.312Z,2.83
2023-05-18T21:40:01.561Z,2.40
2023-05-18T21:42:30.266Z,2.50
2023-05-18T21:44:59.080Z,2.17
2023-05-18T21:47:27.385Z,2.60
2023-05-18T21:50:01.550Z,2.28
2023-05-18T21:52:32.740Z,2.63
2023-05-18T21:55:02.714Z,2.30
2023-05-18T21:57:30.929Z,2.00
2023-05-18T21:59:59.505Z,2.00
2023-05-18T22:02:28.028Z,2.20
2023-05-18T22:04:58.526Z,2.03
2023-05-18T22:07:26.936Z,2.17
2023-05-18T22:09:55.210Z,2.28
2023-05-18T22:12:24.805Z,2.60
2023-05-18T22:14:53.058Z,2.08
2023-05-18T22:17:21.778Z,1.83
2023-05-18T22:19:50.663Z,3.45
2023-05-18T22:22:29.767Z,2.83
2023-05-18T22:24:59.182Z,2.22
2023-05-18T22:27:30.005Z,2.22
2023-05-18T22:29:58.689Z,2.35
2023-05-18T22:32:27.016Z,2.30
2023-05-18T22:34:55.997Z,2.33
2023-05-18T22:37:25.292Z,1.95
2023-05-18T22:39:53.797Z,2.35
2023-05-18T22:42:22.384Z,2.45
2023-05-18T22:44:52.112Z,2.08
2023-05-18T22:47:23.577Z,2.15
2023-05-18T22:49:52.194Z,3.08
2023-05-18T22:52:20.465Z,2.25
2023-05-18T22:54:50.877Z,2.17
2023-05-18T22:57:19.250Z,2.17
2023-05-18T22:59:47.654Z,2.58
2023-05-18T23:02:17.298Z,2.33
2023-05-18T23:04:45.694Z,2.30
2023-05-18T23:07:13.950Z,1.88
2023-05-18T23:09:42.312Z,2.03
2023-05-18T23:12:11.641Z,1.65
2023-05-18T23:14:39.939Z,2.13
2023-05-18T23:17:11.373Z,1.95
2023-05-18T23:19:43.676Z,1.70
2023-05-18T23:22:12.065Z,2.03
2023-05-18T23:24:40.514Z,2.05
2023-05-18T23:27:08.753Z,1.90
2023-05-18T23:29:37.071Z,1.77
2023-05-18T23:32:05.941Z,2.08
2023-05-18T23:34:34.600Z,1.98
2023-05-18T23:37:06.835Z,1.83
2023-05-18T23:39:35.992Z,1.90
2023-05-18T23:42:04.779Z,1.85
2023-05-18T23:44:33.504Z,1.90
2023-05-18T23:47:02.614Z,1.88
2023-05-18T23:49:31.354Z,2.00
2023-05-18T23:52:03.829Z,1.80
2023-05-18T23:54:32.646Z,1.83
2023-05-18T23:57:03.149Z,2.10
2023-05-18T23:59:32.417Z,1.60
